createdAt,value
2019-05-03T00:02:59.230Z,99.90
2019-05-03T00:05:38.747Z,99.90
2019-05-03T00:08:08.749Z,99.90
2019-05-03T00:10:39.403Z,99.90
2019-05-03T00:13:08.963Z,99.90
2019-05-03T00:16:09.184Z,99.90
2019-05-03T00:18:38.522Z,99.90
2019-05-03T00:21:07.863Z,99.90
2019-05-03T00:23:37.216Z,99.90
2019-05-03T00:26:06.540Z,99.90
2019-05-03T00:28:35.922Z,99.90
2019-05-03T00:31:05.448Z,99.90
2019-05-03T00:33:36.367Z,99.90
2019-05-03T00:36:22.355Z,99.90
2019-05-03T00:38:54.220Z,99.90
2019-05-03T00:41:23.547Z,99.90
2019-05-03T00:43:52.885Z,99.90
2019-05-03T00:46:22.195Z,99.90
2019-05-03T00:48:52.440Z,99.90
2019-05-03T00:51:22.592Z,99.90
2019-05-03T00:53:53.113Z,99.90
2019-05-03T00:56:22.646Z,99.90
2019-05-03T00:58:58.435Z,99.90
2019-05-03T01:01:27.805Z,99.90
2019-05-03T01:03:57.138Z,99.90
2019-05-03T01:06:26.491Z,99.90
2019-05-03T01:08:55.827Z,99.90
2019-05-03T01:11:25.188Z,99.90
2019-05-03T01:13:54.543Z,99.90
2019-05-03T01:16:24.991Z,99.90
2019-05-03T01:18:54.328Z,99.90
2019-05-03T01:21:23.603Z,99.90
2019-05-03T01:23:52.945Z,99.90
2019-05-03T01:26:22.791Z,99.90
2019-05-03T01:28:52.491Z,99.90
2019-05-03T01:31:22.729Z,99.90
2019-05-03T01:33:52.705Z,99.90
2019-05-03T01:36:22.920Z,99.90
2019-05-03T01:38:52.947Z,99.90
2019-05-03T01:41:23.377Z,99.90
2019-05-03T01:43:52.846Z,99.90
2019-05-03T01:46:22.963Z,99.90
2019-05-03T01:49:08.016Z,99.90
2019-05-03T01:51:55.167Z,99.90
2019-05-03T01:54:24.492Z,99.90
2019-05-03T01:56:58.737Z,99.90
2019-05-03T01:59:24.813Z,99.90
2019-05-03T02:02:09.524Z,99.90
2019-05-03T02:04:53.378Z,99.90
2019-05-03T02:07:22.760Z,99.90
2019-05-03T02:09:52.087Z,99.90
2019-05-03T02:12:22.183Z,99.90
2019-05-03T02:14:51.711Z,99.90
2019-05-03T02:17:22.673Z,99.90
2019-05-03T02:19:52.726Z,99.90
2019-05-03T02:22:22.608Z,99.90
2019-05-03T02:24:52.590Z,99.90
2019-05-03T02:27:22.050Z,99.90
2019-05-03T02:29:52.376Z,99.90
2019-05-03T02:32:23.266Z,99.90
2019-05-03T02:34:53.488Z,99.90
2019-05-03T02:37:23.091Z,99.90
2019-05-03T02:39:56.731Z,99.90
2019-05-03T02:42:26.679Z,99.90
2019-05-03T02:44:56.550Z,99.90
2019-05-03T02:47:48.661Z,99.90
2019-05-03T02:50:20.024Z,99.90
2019-05-03T02:52:49.365Z,99.90
2019-05-03T02:55:18.694Z,99.90
2019-05-03T02:57:48.057Z,99.90
2019-05-03T03:00:19.344Z,99.90
2019-05-03T03:02:48.693Z,99.90
2019-05-03T03:05:18.026Z,99.90
2019-05-03T03:07:49.555Z,99.90
2019-05-03T03:10:18.882Z,99.90
2019-05-03T03:12:51.170Z,99.90
2019-05-03T03:15:20.496Z,99.90
2019-05-03T03:17:52.122Z,99.90
2019-05-03T03:20:21.438Z,99.90
2019-05-03T03:22:55.401Z,99.90
2019-05-03T03:25:28.481Z,99.90
2019-05-03T03:28:00.844Z,99.90
2019-05-03T03:31:22.685Z,99.90
2019-05-03T03:33:51.925Z,99.90
2019-05-03T03:36:43.841Z,99.90
2019-05-03T03:38:55.288Z,99.90
2019-05-03T03:41:24.971Z,99.90
2019-05-03T03:43:56.598Z,99.90
2019-05-03T03:46:27.598Z,99.90
2019-05-03T03:48:58.396Z,99.90
2019-05-03T03:51:30.271Z,99.90
2019-05-03T03:54:01.505Z,99.90
2019-05-03T03:56:32.470Z,99.90
2019-05-03T03:59:02.640Z,99.90
2019-05-03T04:01:32.000Z,99.90
2019-05-03T04:04:01.488Z,99.90
2019-05-03T04:06:50.008Z,99.90
2019-05-03T04:09:19.692Z,99.90
2019-05-03T04:11:49.252Z,99.90
2019-05-03T04:14:37.696Z,99.90
2019-05-03T04:17:29.080Z,99.90
2019-05-03T04:19:59.268Z,99.90
2019-05-03T04:22:28.655Z,99.90
2019-05-03T04:24:58.020Z,99.90
2019-05-03T04:27:27.909Z,99.90
2019-05-03T04:29:57.792Z,99.90
2019-05-03T04:32:28.955Z,99.90
2019-05-03T04:34:58.168Z,99.90
2019-05-03T04:37:27.523Z,99.90
2019-05-03T04:39:57.003Z,99.90
2019-05-03T04:42:26.413Z,99.90
2019-05-03T04:44:56.372Z,99.90
2019-05-03T04:47:26.619Z,99.90
2019-05-03T04:49:56.240Z,99.90
2019-05-03T04:52:26.049Z,99.90
2019-05-03T04:54:57.632Z,99.90
2019-05-03T04:57:40.123Z,99.90
2019-05-03T04:59:58.079Z,99.90
2019-05-03T05:02:27.434Z,99.90
2019-05-03T05:04:56.821Z,99.90
2019-05-03T05:07:26.529Z,99.90
2019-05-03T05:09:56.394Z,99.90
2019-05-03T05:12:26.012Z,99.90
2019-05-03T05:14:56.372Z,99.90
2019-05-03T05:17:35.478Z,99.90
2019-05-03T05:20:14.618Z,99.90
2019-05-03T05:22:45.378Z,99.90
2019-05-03T05:25:18.151Z,99.90
2019-05-03T05:28:05.440Z,99.90
2019-05-03T05:30:35.294Z,99.90
2019-05-03T05:33:06.472Z,99.90
2019-05-03T05:35:35.859Z,99.90
2019-05-03T05:38:05.218Z,99.90
2019-05-03T05:40:34.984Z,99.80
2019-05-03T05:43:05.073Z,99.40
2019-05-03T05:45:34.964Z,96.90
2019-05-03T05:48:08.099Z,99.00
2019-05-03T05:50:40.032Z,99.80
2019-05-03T05:53:09.396Z,99.90
2019-05-03T05:55:49.918Z,99.90
2019-05-03T05:58:25.892Z,97.40
2019-05-03T06:01:05.469Z,95.60
2019-05-03T06:03:34.928Z,93.60
2019-05-03T06:06:06.371Z,92.10
2019-05-03T06:09:00.745Z,92.40
2019-05-03T06:11:39.232Z,91.10
2019-05-03T06:14:15.784Z,90.80
2019-05-03T06:17:05.476Z,91.50
2019-05-03T06:19:41.740Z,94.10
2019-05-03T06:22:25.797Z,94.30
2019-05-03T06:25:00.123Z,94.70
2019-05-03T06:27:36.059Z,94.40
2019-05-03T06:30:20.652Z,96.00
2019-05-03T06:32:50.036Z,99.90
2019-05-03T06:35:19.400Z,99.90
2019-05-03T06:37:48.784Z,99.90
2019-05-03T06:40:18.135Z,99.90
2019-05-03T06:42:54.509Z,99.90
2019-05-03T06:45:19.017Z,99.90
2019-05-03T06:47:49.930Z,99.90
2019-05-03T06:50:24.189Z,99.90
2019-05-03T06:52:50.608Z,99.90
2019-05-03T06:55:19.972Z,99.90
2019-05-03T06:57:49.884Z,99.90
2019-05-03T07:00:32.345Z,99.90
2019-05-03T07:03:07.536Z,99.90
2019-05-03T07:05:55.860Z,99.90
2019-05-03T07:08:47.157Z,99.90
2019-05-03T07:11:15.425Z,99.90
2019-05-03T07:13:45.051Z,99.90
2019-05-03T07:16:14.947Z,98.70
2019-05-03T07:18:45.517Z,92.30
2019-05-03T07:21:15.319Z,84.60
2019-05-03T07:23:45.093Z,82.90
2019-05-03T07:26:15.132Z,77.40
2019-05-03T07:28:49.420Z,76.80
2019-05-03T07:31:15.658Z,80.50
2019-05-03T07:33:45.047Z,76.60
2019-05-03T07:36:15.306Z,78.00
2019-05-03T07:38:45.463Z,82.40
2019-05-03T07:41:15.012Z,87.70
2019-05-03T07:43:45.103Z,91.80
2019-05-03T07:46:14.827Z,94.80
2019-05-03T07:48:45.671Z,94.90
2019-05-03T07:51:15.196Z,97.00
2019-05-03T07:53:45.091Z,98.70
2019-05-03T07:56:16.218Z,98.90
2019-05-03T07:58:59.423Z,99.60
2019-05-03T08:01:31.379Z,99.90
2019-05-03T08:04:00.764Z,99.90
2019-05-03T08:06:30.128Z,99.90
2019-05-03T08:08:59.529Z,99.90
2019-05-03T08:11:28.916Z,99.90
2019-05-03T08:13:58.268Z,99.90
2019-05-03T08:16:27.647Z,99.90
2019-05-03T08:18:57.012Z,99.90
2019-05-03T08:21:26.430Z,99.90
2019-05-03T08:23:55.873Z,99.90
2019-05-03T08:26:25.901Z,99.90
2019-05-03T08:28:55.649Z,99.90
2019-05-03T08:31:47.764Z,99.90
2019-05-03T08:34:48.448Z,99.90
2019-05-03T08:37:32.492Z,99.90
2019-05-03T08:40:01.972Z,99.90
2019-05-03T08:42:31.331Z,99.90
2019-05-03T08:45:00.717Z,99.90
2019-05-03T08:47:30.083Z,99.90
2019-05-03T08:49:59.469Z,99.90
2019-05-03T08:52:28.828Z,99.90
2019-05-03T08:54:58.188Z,99.90
2019-05-03T08:57:27.571Z,99.90
2019-05-03T08:59:56.933Z,99.90
2019-05-03T09:02:26.321Z,99.90
2019-05-03T09:04:55.724Z,99.90
2019-05-03T09:07:25.435Z,99.90
2019-05-03T09:10:05.299Z,99.90
2019-05-03T09:13:03.444Z,99.90
2019-05-03T09:15:31.713Z,99.90
2019-05-03T09:18:01.072Z,99.90
2019-05-03T09:20:32.347Z,99.90
2019-05-03T09:23:01.728Z,99.90
2019-05-03T09:25:31.134Z,99.90
2019-05-03T09:28:00.532Z,99.90
2019-05-03T09:30:29.999Z,99.90
2019-05-03T09:32:59.384Z,99.90
2019-05-03T09:35:32.796Z,99.90
2019-05-03T09:37:59.788Z,99.90
2019-05-03T09:40:29.155Z,99.90
2019-05-03T09:42:58.544Z,99.90
2019-05-03T09:45:27.904Z,99.90
2019-05-03T09:47:57.286Z,99.90
2019-05-03T09:50:26.646Z,99.90
2019-05-03T09:52:56.552Z,99.90
2019-05-03T09:55:35.363Z,99.90
2019-05-03T09:58:05.521Z,99.90
2019-05-03T10:00:35.120Z,99.90
2019-05-03T10:03:05.555Z,99.90
2019-05-03T10:05:35.305Z,99.90
2019-05-03T10:08:05.287Z,99.90
2019-05-03T10:10:52.572Z,99.90
2019-05-03T10:13:23.767Z,99.90
2019-05-03T10:15:54.871Z,99.90
2019-05-03T10:18:25.477Z,99.90
2019-05-03T10:20:56.148Z,99.90
2019-05-03T10:23:42.092Z,99.90
2019-05-03T10:26:11.465Z,99.90
2019-05-03T10:28:40.879Z,99.90
2019-05-03T10:31:10.249Z,99.90
2019-05-03T10:33:45.095Z,99.90
2019-05-03T10:36:15.400Z,99.50
2019-05-03T10:38:46.074Z,99.90
2019-05-03T10:41:15.644Z,99.60
2019-05-03T10:43:45.337Z,93.90
2019-05-03T10:46:15.930Z,93.10
2019-05-03T10:48:45.549Z,93.60
2019-05-03T10:51:15.727Z,93.60
2019-05-03T10:53:48.720Z,94.70
2019-05-03T10:56:23.084Z,96.10
2019-05-03T10:58:55.981Z,97.50
2019-05-03T11:01:56.287Z,98.90
2019-05-03T11:04:26.378Z,99.80
2019-05-03T11:06:55.735Z,99.90
2019-05-03T11:09:25.774Z,99.90
2019-05-03T11:11:55.703Z,99.90
2019-05-03T11:14:25.500Z,99.90
2019-05-03T11:16:55.391Z,99.90
2019-05-03T11:19:25.392Z,99.90
2019-05-03T11:21:54.979Z,99.90
2019-05-03T11:24:27.164Z,99.90
2019-05-03T11:27:00.037Z,99.90
2019-05-03T11:29:28.496Z,99.90
2019-05-03T11:32:14.875Z,99.90
2019-05-03T11:35:04.580Z,99.90
2019-05-03T11:37:50.286Z,99.90
2019-05-03T11:40:19.670Z,99.90
2019-05-03T11:42:49.939Z,99.90
2019-05-03T11:45:19.497Z,99.90
2019-05-03T11:47:48.858Z,99.90
2019-05-03T11:50:18.552Z,99.90
2019-05-03T11:52:47.928Z,99.90
2019-05-03T11:55:17.344Z,99.90
2019-05-03T11:57:46.721Z,99.90
2019-05-03T12:00:22.145Z,99.90
2019-05-03T12:03:15.676Z,99.90
2019-05-03T12:05:47.960Z,99.90
2019-05-03T12:08:17.324Z,99.90
2019-05-03T12:10:55.451Z,99.90
2019-05-03T12:13:26.931Z,99.90
2019-05-03T12:15:56.329Z,99.90
2019-05-03T12:18:26.281Z,99.90
2019-05-03T12:20:58.573Z,99.90
2019-05-03T12:23:31.089Z,99.90
2019-05-03T12:25:59.359Z,99.90
2019-05-03T12:28:29.223Z,99.90
2019-05-03T12:30:58.617Z,99.90
2019-05-03T12:33:28.188Z,99.90
2019-05-03T12:35:57.581Z,99.90
2019-05-03T12:38:26.933Z,99.90
2019-05-03T12:40:56.323Z,99.90
2019-05-03T12:43:25.809Z,99.90
2019-05-03T12:45:55.140Z,99.90
2019-05-03T12:48:24.690Z,99.90
2019-05-03T12:50:54.396Z,99.90
2019-05-03T12:53:25.280Z,99.90
2019-05-03T12:55:54.648Z,99.90
2019-05-03T12:58:45.686Z,99.90
2019-05-03T13:01:40.605Z,99.90
2019-05-03T13:04:15.268Z,99.90
2019-05-03T13:06:48.611Z,99.90
2019-05-03T13:09:17.997Z,99.90
2019-05-03T13:11:55.230Z,99.90
2019-05-03T13:14:19.967Z,99.90
2019-05-03T13:16:49.337Z,99.90
2019-05-03T13:19:18.717Z,99.90
2019-05-03T13:21:48.081Z,99.90
2019-05-03T13:24:23.328Z,99.90
2019-05-03T13:26:48.492Z,99.90
2019-05-03T13:29:17.887Z,99.90
2019-05-03T13:31:58.096Z,99.90
2019-05-03T13:34:18.280Z,99.90
2019-05-03T13:36:47.635Z,99.90
2019-05-03T13:39:17.029Z,99.90
2019-05-03T13:41:46.389Z,99.90
2019-05-03T13:44:15.842Z,99.90
2019-05-03T13:46:45.223Z,99.90
2019-05-03T13:49:15.895Z,99.90
2019-05-03T13:51:45.306Z,99.90
2019-05-03T13:54:14.947Z,99.90
2019-05-03T13:56:44.424Z,99.90
2019-05-03T13:59:19.878Z,99.90
2019-05-03T14:01:45.184Z,99.90
2019-05-03T14:04:14.920Z,99.90
2019-05-03T14:06:44.680Z,99.90
2019-05-03T14:09:14.466Z,99.90
2019-05-03T14:11:44.811Z,99.90
2019-05-03T14:14:15.237Z,99.90
2019-05-03T14:16:45.174Z,99.90
2019-05-03T14:19:20.391Z,99.90
2019-05-03T14:21:54.540Z,98.10
2019-05-03T14:24:24.548Z,98.30
2019-05-03T14:26:55.170Z,96.70
2019-05-03T14:29:25.306Z,98.20
2019-05-03T14:31:54.726Z,98.70
2019-05-03T14:34:25.690Z,99.00
2019-05-03T14:36:55.522Z,99.20
2019-05-03T14:39:25.408Z,98.30
2019-05-03T14:41:55.549Z,97.90
2019-05-03T14:44:25.305Z,96.40
2019-05-03T14:46:58.771Z,95.70
2019-05-03T14:49:25.883Z,96.30
2019-05-03T14:51:56.708Z,97.20
2019-05-03T14:54:28.328Z,97.30
2019-05-03T14:57:22.461Z,98.70
2019-05-03T15:00:16.907Z,98.50
2019-05-03T15:03:06.603Z,96.50
2019-05-03T15:05:36.311Z,96.20
2019-05-03T15:08:05.867Z,94.10
2019-05-03T15:10:35.255Z,94.50
2019-05-03T15:13:05.251Z,94.00
2019-05-03T15:15:34.854Z,93.50
2019-05-03T15:18:05.926Z,93.20
2019-05-03T15:20:35.463Z,92.20
2019-05-03T15:23:05.598Z,92.50
2019-05-03T15:25:35.116Z,92.60
2019-05-03T15:28:05.029Z,92.00
2019-05-03T15:30:35.293Z,92.60
2019-05-03T15:33:05.120Z,92.10
2019-05-03T15:35:35.088Z,90.80
2019-05-03T15:38:05.613Z,91.10
2019-05-03T15:40:35.123Z,91.30
2019-05-03T15:43:28.027Z,91.80
2019-05-03T15:46:02.419Z,89.60
2019-05-03T15:48:35.923Z,87.70
2019-05-03T15:51:05.328Z,87.40
2019-05-03T15:53:35.343Z,88.70
2019-05-03T15:56:05.391Z,86.60
2019-05-03T15:58:34.815Z,87.00
2019-05-03T16:01:04.700Z,88.10
2019-05-03T16:03:35.702Z,86.60
2019-05-03T16:06:05.449Z,83.00
2019-05-03T16:08:34.830Z,85.50
2019-05-03T16:11:05.358Z,85.70
2019-05-03T16:13:35.275Z,86.30
2019-05-03T16:16:06.178Z,86.00
2019-05-03T16:18:35.553Z,85.30
2019-05-03T16:21:05.155Z,83.80
2019-05-03T16:23:34.583Z,83.60
2019-05-03T16:26:04.996Z,85.10
2019-05-03T16:28:46.473Z,85.50
2019-05-03T16:31:18.624Z,84.40
2019-05-03T16:33:48.064Z,80.00
2019-05-03T16:36:17.441Z,81.20
2019-05-03T16:38:46.842Z,79.00
2019-05-03T16:41:17.867Z,79.80
2019-05-03T16:43:47.388Z,80.90
2019-05-03T16:46:16.763Z,80.90
2019-05-03T16:48:46.156Z,80.70
2019-05-03T16:51:17.295Z,80.00
2019-05-03T16:53:46.559Z,82.20
2019-05-03T16:56:17.195Z,81.50
2019-05-03T16:58:46.699Z,80.70
2019-05-03T17:01:18.115Z,79.10
2019-05-03T17:03:51.882Z,80.10
2019-05-03T17:06:39.372Z,81.00
2019-05-03T17:09:15.515Z,82.00
2019-05-03T17:11:52.327Z,83.20
2019-05-03T17:14:21.716Z,83.60
2019-05-03T17:16:51.089Z,85.90
2019-05-03T17:19:20.475Z,83.90
2019-05-03T17:21:49.841Z,84.60
2019-05-03T17:24:19.215Z,84.60
2019-05-03T17:26:48.602Z,85.50
2019-05-03T17:29:18.029Z,84.80
2019-05-03T17:31:47.404Z,84.90
2019-05-03T17:34:16.784Z,86.60
2019-05-03T17:36:46.149Z,88.90
2019-05-03T17:39:17.434Z,90.30
2019-05-03T17:42:05.751Z,89.80
2019-05-03T17:44:39.859Z,88.10
2019-05-03T17:47:09.216Z,88.20
2019-05-03T17:49:38.595Z,87.00
2019-05-03T17:52:26.912Z,88.70
2019-05-03T17:55:15.282Z,86.50
2019-05-03T17:58:04.533Z,86.40
2019-05-03T18:00:58.168Z,86.70
2019-05-03T18:03:29.607Z,88.00
2019-05-03T18:06:18.480Z,86.20
2019-05-03T18:09:04.426Z,86.70
2019-05-03T18:11:38.291Z,86.20
2019-05-03T18:14:07.660Z,86.70
2019-05-03T18:16:37.043Z,85.60
2019-05-03T18:19:06.419Z,86.70
2019-05-03T18:21:36.207Z,88.50
2019-05-03T18:24:05.562Z,88.80
2019-05-03T18:26:35.528Z,90.60
2019-05-03T18:29:05.762Z,91.00
2019-05-03T18:31:35.341Z,91.60
2019-05-03T18:34:05.166Z,91.80
2019-05-03T18:36:35.824Z,93.70
2019-05-03T18:39:08.193Z,94.10
2019-05-03T18:41:37.571Z,95.50
2019-05-03T18:44:41.219Z,97.20
2019-05-03T18:47:14.741Z,99.10
2019-05-03T18:49:44.755Z,99.90
2019-05-03T18:52:14.949Z,99.90
2019-05-03T18:54:44.530Z,99.90
2019-05-03T18:57:15.644Z,99.90
2019-05-03T18:59:45.064Z,99.90
2019-05-03T19:02:14.928Z,99.90
2019-05-03T19:04:48.285Z,99.90
2019-05-03T19:07:31.123Z,99.90
2019-05-03T19:10:21.215Z,99.90
2019-05-03T19:12:57.095Z,99.90
2019-05-03T19:15:26.440Z,99.90
2019-05-03T19:18:00.027Z,99.90
2019-05-03T19:20:29.383Z,99.90
2019-05-03T19:22:58.763Z,99.90
2019-05-03T19:25:28.116Z,99.90
2019-05-03T19:27:57.525Z,99.90
2019-05-03T19:30:27.084Z,99.90
2019-05-03T19:32:56.464Z,99.90
2019-05-03T19:35:27.639Z,99.90
2019-05-03T19:37:56.848Z,99.90
2019-05-03T19:40:26.199Z,99.90
2019-05-03T19:42:55.580Z,99.90
2019-05-03T19:45:25.012Z,99.90
2019-05-03T19:47:55.206Z,99.90
2019-05-03T19:50:27.125Z,99.90
2019-05-03T19:53:06.520Z,99.90
2019-05-03T19:55:35.879Z,99.90
2019-05-03T19:58:05.550Z,99.90
2019-05-03T20:00:43.312Z,99.90
2019-05-03T20:03:16.982Z,99.90
2019-05-03T20:06:08.095Z,99.90
2019-05-03T20:08:40.913Z,99.90
2019-05-03T20:11:17.251Z,99.90
2019-05-03T20:13:46.932Z,99.90
2019-05-03T20:16:16.497Z,99.90
2019-05-03T20:18:47.161Z,99.90
2019-05-03T20:21:16.488Z,99.90
2019-05-03T20:23:47.156Z,99.90
2019-05-03T20:26:17.290Z,99.90
2019-05-03T20:28:46.667Z,99.90
2019-05-03T20:31:16.036Z,99.90
2019-05-03T20:33:45.849Z,99.90
2019-05-03T20:36:15.287Z,99.90
2019-05-03T20:38:44.690Z,99.90
2019-05-03T20:41:14.810Z,99.90
2019-05-03T20:43:57.887Z,99.90
2019-05-03T20:46:32.148Z,99.90
2019-05-03T20:49:04.727Z,99.90
2019-05-03T20:51:34.532Z,99.90
2019-05-03T20:54:04.908Z,99.90
2019-05-03T20:56:34.363Z,99.90
2019-05-03T20:59:05.350Z,99.90
2019-05-03T21:01:34.860Z,99.90
2019-05-03T21:04:04.828Z,99.90
2019-05-03T21:06:35.822Z,99.90
2019-05-03T21:09:07.395Z,99.90
2019-05-03T21:11:36.751Z,99.90
2019-05-03T21:14:06.132Z,99.90
2019-05-03T21:16:52.164Z,99.90
2019-05-03T21:19:41.375Z,99.90
2019-05-03T21:22:24.810Z,99.90
2019-05-03T21:25:12.914Z,99.90
2019-05-03T21:27:42.297Z,99.90
2019-05-03T21:30:11.675Z,99.90
2019-05-03T21:32:41.044Z,99.90
2019-05-03T21:35:10.431Z,99.90
2019-05-03T21:37:39.784Z,99.90
2019-05-03T21:40:09.362Z,99.90
2019-05-03T21:42:38.719Z,99.90
2019-05-03T21:45:09.616Z,99.90
2019-05-03T21:47:51.179Z,99.90
2019-05-03T21:50:21.096Z,99.90
2019-05-03T21:52:50.447Z,99.90
2019-05-03T21:55:19.833Z,99.90
2019-05-03T21:57:49.184Z,99.90
2019-05-03T22:00:18.993Z,99.90
2019-05-03T22:02:48.360Z,99.90
2019-05-03T22:05:17.835Z,99.90
2019-05-03T22:07:47.119Z,99.90
2019-05-03T22:10:16.700Z,99.90
2019-05-03T22:12:46.056Z,99.90
2019-05-03T22:15:26.434Z,99.90
2019-05-03T22:18:08.891Z,99.90
2019-05-03T22:21:05.534Z,99.90
2019-05-03T22:23:56.767Z,99.90
2019-05-03T22:26:45.302Z,99.90
2019-05-03T22:29:17.150Z,99.90
2019-05-03T22:31:46.279Z,99.90
2019-05-03T22:34:15.639Z,99.90
2019-05-03T22:36:45.131Z,99.90
2019-05-03T22:39:15.774Z,99.90
2019-05-03T22:41:45.202Z,99.90
2019-05-03T22:44:17.031Z,99.90
2019-05-03T22:46:45.599Z,99.90
2019-05-03T22:49:15.593Z,99.90
2019-05-03T22:51:45.262Z,99.90
2019-05-03T22:54:15.377Z,99.90
2019-05-03T22:56:45.030Z,99.90
2019-05-03T22:59:14.872Z,99.90
2019-05-03T23:01:45.862Z,99.90
2019-05-03T23:04:15.376Z,99.90
2019-05-03T23:06:47.114Z,99.90
2019-05-03T23:09:16.022Z,99.90
2019-05-03T23:11:45.531Z,99.90
2019-05-03T23:14:15.303Z,99.90
2019-05-03T23:16:45.068Z,99.90
2019-05-03T23:19:15.044Z,99.90
2019-05-03T23:21:59.140Z,99.90
2019-05-03T23:24:28.531Z,99.90
2019-05-03T23:26:57.891Z,99.90
2019-05-03T23:29:27.359Z,99.90
2019-05-03T23:31:56.753Z,99.90
2019-05-03T23:34:26.157Z,99.90
2019-05-03T23:36:56.027Z,99.90
2019-05-03T23:39:25.401Z,99.90
2019-05-03T23:41:55.715Z,99.90
2019-05-03T23:44:25.292Z,99.90
2019-05-03T23:47:14.447Z,99.90
2019-05-03T23:49:44.593Z,99.90
2019-05-03T23:52:35.253Z,99.90
2019-05-03T23:55:14.721Z,99.90
2019-05-03T23:57:44.674Z,99.90
